Parham, Canada
Current Conditions -  °F | °C
As of 10:00 PM on Wednesday 26 Nov 2014 (Local Time) from CYGK Reporting Station
Overcast Overcast  
Wind Chill: 20°   Ceiling: 10000
Heat Index: 28°   Visibility: 15mi
Dew Point: 21°   Wind: 9mph
Humidity: 74%   Direction: 10°N
Pressure: 30.05"   Gusts: NA
Location:  44.65°N, 76.72°W
Report Text: CYGK 270300Z 01008KT 15SM OVC100 M02/M06 A3005 RMK AS8 SLP181
Loading
Personal Weather Stations






























Interactive Weather Map New forecast layout! Learn more

10-Day Weather Forecast

Advertisements
Track Severe Weather on mobile